createdAt,value
2023-04-18T00:00:59.775Z,101445.84
2023-04-18T00:02:02.828Z,101438.19
2023-04-18T00:03:09.706Z,101440.94
2023-04-18T00:04:13.728Z,101438.84
2023-04-18T00:05:18.304Z,101445.41
2023-04-18T00:06:22.156Z,101439.50
2023-04-18T00:07:23.804Z,101441.63
2023-04-18T00:08:26.603Z,101440.34
2023-04-18T00:09:28.103Z,101440.72
2023-04-18T00:10:30.938Z,101442.09
2023-04-18T00:11:32.599Z,101441.28
2023-04-18T00:12:36.314Z,101443.75
2023-04-18T00:13:38.548Z,101440.69
2023-04-18T00:14:41.139Z,101441.75
2023-04-18T00:15:44.609Z,101434.56
2023-04-18T00:16:47.406Z,101439.03
2023-04-18T00:17:49.219Z,101442.13
2023-04-18T00:18:53.016Z,101445.66
2023-04-18T00:19:56.323Z,101444.13
2023-04-18T00:21:00.370Z,101447.19
2023-04-18T00:22:07.117Z,101446.16
2023-04-18T00:23:14.296Z,101442.69
2023-04-18T00:24:16.676Z,101443.16
2023-04-18T00:25:19.117Z,101449.03
2023-04-18T00:26:20.786Z,101444.31
2023-04-18T00:27:23.667Z,101450.72
2023-04-18T00:28:25.331Z,101445.88
2023-04-18T00:29:27.952Z,101444.00
2023-04-18T00:30:29.529Z,101446.97
2023-04-18T00:31:32.571Z,101442.69
2023-04-18T00:32:34.202Z,101442.72
2023-04-18T00:33:37.064Z,101444.94
2023-04-18T00:34:38.924Z,101450.41
2023-04-18T00:35:41.677Z,101441.66
2023-04-18T00:36:44.807Z,101446.47
2023-04-18T00:37:47.337Z,101451.06
2023-04-18T00:38:49.074Z,101447.41
2023-04-18T00:39:53.788Z,101442.78
2023-04-18T00:40:55.379Z,101446.00
2023-04-18T00:41:58.111Z,101441.84
2023-04-18T00:43:00.134Z,101438.19
2023-04-18T00:44:06.156Z,101439.00
2023-04-18T00:45:11.630Z,101434.66
2023-04-18T00:46:14.290Z,101443.16
2023-04-18T00:47:16.791Z,101441.47
2023-04-18T00:48:19.420Z,101447.66
2023-04-18T00:49:21.984Z,101439.47
2023-04-18T00:50:25.278Z,101443.94
2023-04-18T00:51:27.937Z,101441.63
2023-04-18T00:52:33.705Z,101434.59
2023-04-18T00:53:36.046Z,101443.81
2023-04-18T00:54:38.811Z,101446.66
2023-04-18T00:55:40.644Z,101440.22
2023-04-18T00:56:43.703Z,101442.97
2023-04-18T00:57:45.868Z,101439.88
2023-04-18T00:58:48.430Z,101445.53
2023-04-18T00:59:50.416Z,101441.16
2023-04-18T01:00:54.527Z,101450.59
2023-04-18T01:01:56.392Z,101446.44
2023-04-18T01:03:00.142Z,101441.78
2023-04-18T01:04:04.775Z,101440.28
2023-04-18T01:05:09.687Z,101443.13
2023-04-18T01:06:11.435Z,101435.19
2023-04-18T01:07:15.210Z,101434.72
2023-04-18T01:08:19.542Z,101437.50
2023-04-18T01:09:22.469Z,101433.53
2023-04-18T01:10:24.068Z,101432.66
2023-04-18T01:11:26.573Z,101425.09
2023-04-18T01:12:28.104Z,101428.78
2023-04-18T01:13:30.592Z,101431.53
2023-04-18T01:14:32.800Z,101425.31
2023-04-18T01:15:36.920Z,101419.03
2023-04-18T01:16:40.048Z,101421.78
2023-04-18T01:17:42.564Z,101420.25
2023-04-18T01:18:44.119Z,101426.16
2023-04-18T01:19:47.711Z,101424.31
2023-04-18T01:20:51.008Z,101422.84
2023-04-18T01:21:54.294Z,101422.97
2023-04-18T01:22:57.377Z,101421.44
2023-04-18T01:24:10.679Z,101426.25
2023-04-18T01:25:12.435Z,101422.28
2023-04-18T01:26:15.060Z,101424.53
2023-04-18T01:27:16.575Z,101426.28
2023-04-18T01:28:21.236Z,101421.09
2023-04-18T01:29:22.835Z,101415.91
2023-04-18T01:30:24.481Z,101420.69
2023-04-18T01:31:27.441Z,101418.59
2023-04-18T01:32:28.971Z,101415.81
2023-04-18T01:33:31.474Z,101418.50
2023-04-18T01:34:32.974Z,101414.69
2023-04-18T01:35:35.458Z,101411.16
2023-04-18T01:36:39.473Z,101414.34
2023-04-18T01:37:41.983Z,101409.03
2023-04-18T01:38:43.608Z,101414.22
2023-04-18T01:39:48.738Z,101417.88
2023-04-18T01:40:50.588Z,101423.25
2023-04-18T01:41:53.102Z,101417.09
2023-04-18T01:42:54.666Z,101420.94
2023-04-18T01:43:57.092Z,101408.31
2023-04-18T01:44:58.615Z,101414.09
2023-04-18T01:46:01.129Z,101411.16
2023-04-18T01:47:06.634Z,101409.84
2023-04-18T01:48:09.225Z,101410.47
2023-04-18T01:49:10.851Z,101409.41
2023-04-18T01:50:14.043Z,101403.59
2023-04-18T01:51:15.743Z,101409.63
2023-04-18T01:52:18.218Z,101415.75
2023-04-18T01:53:19.857Z,101405.00
2023-04-18T01:54:22.386Z,101408.72
2023-04-18T01:55:25.218Z,101410.47
2023-04-18T01:56:27.679Z,101409.63
2023-04-18T01:57:29.401Z,101407.03
2023-04-18T01:58:33.567Z,101409.31
2023-04-18T01:59:35.303Z,101412.47
2023-04-18T02:00:37.936Z,101409.75
2023-04-18T02:01:39.502Z,101409.63
2023-04-18T02:02:42.760Z,101408.66
2023-04-18T02:03:45.034Z,101407.88
2023-04-18T02:04:47.803Z,101404.69
2023-04-18T02:05:49.321Z,101403.84
2023-04-18T02:06:51.807Z,101399.13
2023-04-18T02:07:53.565Z,101413.38
2023-04-18T02:08:56.171Z,101410.09
2023-04-18T02:09:57.696Z,101410.03
2023-04-18T02:11:01.863Z,101405.59
2023-04-18T02:12:07.072Z,101412.06
2023-04-18T02:13:14.459Z,101410.81
2023-04-18T02:14:16.130Z,101415.03
2023-04-18T02:15:19.101Z,101401.97
2023-04-18T02:16:20.917Z,101406.31
2023-04-18T02:17:24.093Z,101397.31
2023-04-18T02:18:26.513Z,101399.06
2023-04-18T02:19:30.952Z,101404.00
2023-04-18T02:20:33.831Z,101400.47
2023-04-18T02:21:36.390Z,101398.63
2023-04-18T02:22:38.226Z,101403.63
2023-04-18T02:23:40.756Z,101402.25
2023-04-18T02:24:42.305Z,101394.97
2023-04-18T02:25:44.791Z,101398.94
2023-04-18T02:26:47.754Z,101398.66
2023-04-18T02:27:50.356Z,101397.31
2023-04-18T02:28:51.945Z,101407.84
2023-04-18T02:29:54.725Z,101399.72
2023-04-18T02:30:57.221Z,101397.44
2023-04-18T02:31:58.784Z,101406.78
2023-04-18T02:33:01.308Z,101402.97
2023-04-18T02:34:05.462Z,101407.28
2023-04-18T02:35:08.969Z,101403.28
2023-04-18T02:36:12.311Z,101405.59
2023-04-18T02:37:14.932Z,101400.38
2023-04-18T02:38:16.535Z,101406.63
2023-04-18T02:39:18.993Z,101405.25
2023-04-18T02:40:20.768Z,101409.16
2023-04-18T02:41:23.744Z,101408.91
2023-04-18T02:42:26.690Z,101404.28
2023-04-18T02:43:29.182Z,101414.97
2023-04-18T02:44:30.725Z,101408.84
2023-04-18T02:45:33.628Z,101415.78
2023-04-18T02:46:36.200Z,101410.69
2023-04-18T02:47:51.291Z,101413.41
2023-04-18T02:48:57.449Z,101418.50
2023-04-18T02:49:58.981Z,101415.63
2023-04-18T02:51:03.725Z,101414.59
2023-04-18T02:52:05.272Z,101408.75
2023-04-18T02:53:07.819Z,101411.81
2023-04-18T02:54:09.390Z,101415.78
2023-04-18T02:55:11.889Z,101411.72
2023-04-18T02:56:16.990Z,101416.06
2023-04-18T02:57:19.559Z,101411.09
2023-04-18T02:58:22.863Z,101411.75
2023-04-18T02:59:25.418Z,101418.28
2023-04-18T03:00:29.300Z,101414.59
2023-04-18T03:01:31.847Z,101410.78
2023-04-18T03:02:33.462Z,101419.66
2023-04-18T03:03:36.183Z,101414.78
2023-04-18T03:04:37.859Z,101413.91
2023-04-18T03:05:40.565Z,101421.47
2023-04-18T03:06:42.137Z,101413.53
2023-04-18T03:07:46.247Z,101415.19
2023-04-18T03:08:47.822Z,101416.78
2023-04-18T03:09:50.326Z,101413.53
2023-04-18T03:10:51.838Z,101417.38
2023-04-18T03:11:54.520Z,101413.53
2023-04-18T03:12:56.112Z,101413.53
2023-04-18T03:13:59.965Z,101415.03
2023-04-18T03:15:06.730Z,101414.28
2023-04-18T03:16:09.525Z,101414.59
2023-04-18T03:17:12.369Z,101413.19
2023-04-18T03:18:14.663Z,101412.13
2023-04-18T03:19:17.190Z,101408.81
2023-04-18T03:20:19.863Z,101412.19
2023-04-18T03:21:21.411Z,101413.75
2023-04-18T03:22:24.143Z,101410.56
2023-04-18T03:23:25.672Z,101408.00
2023-04-18T03:24:28.173Z,101409.44
2023-04-18T03:25:29.765Z,101408.28
2023-04-18T03:26:32.296Z,101404.03
2023-04-18T03:27:33.930Z,101408.09
2023-04-18T03:28:36.415Z,101409.16
2023-04-18T03:29:39.281Z,101410.63
2023-04-18T03:30:42.844Z,101407.59
2023-04-18T03:31:44.477Z,101414.72
2023-04-18T03:32:48.916Z,101409.72
2023-04-18T03:33:51.676Z,101414.44
2023-04-18T03:34:54.142Z,101406.84
2023-04-18T03:35:55.754Z,101418.56
2023-04-18T03:36:58.509Z,101408.19
2023-04-18T03:38:00.163Z,101404.13
2023-04-18T03:39:05.930Z,101409.97
2023-04-18T03:40:08.951Z,101402.13
2023-04-18T03:41:11.573Z,101408.63
2023-04-18T03:42:13.073Z,101414.44
2023-04-18T03:43:15.715Z,101417.66
2023-04-18T03:44:17.264Z,101416.59
2023-04-18T03:45:21.313Z,101414.50
2023-04-18T03:46:24.602Z,101422.88
2023-04-18T03:47:27.249Z,101425.75
2023-04-18T03:48:30.905Z,101421.72
2023-04-18T03:49:32.520Z,101420.28
2023-04-18T03:50:35.148Z,101425.63
2023-04-18T03:51:43.220Z,101428.75
2023-04-18T03:52:45.872Z,101426.25
2023-04-18T03:53:47.463Z,101422.53
2023-04-18T03:54:50.004Z,101418.75
2023-04-18T03:55:51.705Z,101430.94
2023-04-18T03:56:54.422Z,101416.41
2023-04-18T03:57:55.948Z,101425.25
2023-04-18T03:58:58.746Z,101427.31
2023-04-18T04:00:00.895Z,101417.38
2023-04-18T04:01:08.325Z,101422.50
2023-04-18T04:02:09.986Z,101420.00
2023-04-18T04:03:12.674Z,101420.84
2023-04-18T04:04:15.672Z,101427.47
2023-04-18T04:05:18.674Z,101423.16
2023-04-18T04:06:20.485Z,101425.94
2023-04-18T04:07:23.329Z,101422.91
2023-04-18T04:08:26.983Z,101422.03
2023-04-18T04:09:30.656Z,101432.59
2023-04-18T04:10:32.341Z,101428.88
2023-04-18T04:11:37.889Z,101430.78
2023-04-18T04:12:39.417Z,101430.59
2023-04-18T04:13:41.894Z,101434.47
2023-04-18T04:14:43.534Z,101431.34
2023-04-18T04:15:46.060Z,101435.41
2023-04-18T04:16:48.979Z,101431.88
2023-04-18T04:17:51.708Z,101437.72
2023-04-18T04:18:53.307Z,101441.19
2023-04-18T04:19:56.086Z,101437.66
2023-04-18T04:20:59.046Z,101439.09
2023-04-18T04:22:01.709Z,101433.09
2023-04-18T04:23:03.523Z,101442.34
2023-04-18T04:24:06.966Z,101442.63
2023-04-18T04:25:10.484Z,101437.50
2023-04-18T04:26:14.714Z,101440.03
2023-04-18T04:27:18.769Z,101438.81
2023-04-18T04:28:22.676Z,101446.00
2023-04-18T04:29:26.294Z,101442.75
2023-04-18T04:30:28.678Z,101445.97
2023-04-18T04:31:31.821Z,101444.44
2023-04-18T04:32:35.593Z,101447.91
2023-04-18T04:33:39.237Z,101454.88
2023-04-18T04:34:41.686Z,101452.72
2023-04-18T04:35:44.357Z,101452.66
2023-04-18T04:36:46.723Z,101451.75
2023-04-18T04:37:50.704Z,101455.34
2023-04-18T04:38:52.362Z,101445.78
2023-04-18T04:39:56.524Z,101451.75
2023-04-18T04:40:58.333Z,101450.25
2023-04-18T04:42:03.732Z,101460.41
2023-04-18T04:43:08.068Z,101459.31
2023-04-18T04:44:09.713Z,101457.56
2023-04-18T04:45:12.570Z,101462.63
2023-04-18T04:46:14.753Z,101461.75
2023-04-18T04:47:17.380Z,101463.59
2023-04-18T04:48:22.095Z,101455.91
2023-04-18T04:49:24.720Z,101456.13
2023-04-18T04:50:26.286Z,101455.75
2023-04-18T04:51:28.868Z,101462.78
2023-04-18T04:52:32.586Z,101461.00
2023-04-18T04:53:35.292Z,101468.69
2023-04-18T04:54:36.899Z,101471.06
2023-04-18T04:55:39.821Z,101456.13
2023-04-18T04:56:41.577Z,101465.81
2023-04-18T04:57:44.794Z,101466.31
2023-04-18T04:58:47.210Z,101467.03
2023-04-18T04:59:49.676Z,101472.66
2023-04-18T05:00:52.596Z,101464.44
2023-04-18T05:01:55.299Z,101471.13
2023-04-18T05:02:57.470Z,101472.00
2023-04-18T05:04:01.481Z,101475.00
2023-04-18T05:05:05.998Z,101470.22
2023-04-18T05:06:11.164Z,101474.13
2023-04-18T05:07:13.865Z,101483.06
2023-04-18T05:08:15.503Z,101474.22
2023-04-18T05:09:18.121Z,101482.59
2023-04-18T05:10:20.051Z,101481.69
2023-04-18T05:11:22.820Z,101478.94
2023-04-18T05:12:24.371Z,101474.66
2023-04-18T05:13:26.932Z,101482.63
2023-04-18T05:14:28.552Z,101483.66
2023-04-18T05:15:31.308Z,101484.72
2023-04-18T05:16:34.017Z,101479.84
2023-04-18T05:17:35.858Z,101487.50
2023-04-18T05:18:40.316Z,101478.31
2023-04-18T05:19:44.600Z,101490.59
2023-04-18T05:20:46.237Z,101481.69
2023-04-18T05:21:48.768Z,101480.19
2023-04-18T05:22:50.428Z,101483.81
2023-04-18T05:23:52.967Z,101488.22
2023-04-18T05:24:54.516Z,101491.72
2023-04-18T05:25:58.094Z,101491.22
2023-04-18T05:26:59.705Z,101494.44
2023-04-18T05:28:04.611Z,101492.16
2023-04-18T05:29:07.194Z,101489.97
2023-04-18T05:30:12.728Z,101494.44
2023-04-18T05:31:15.324Z,101490.06
2023-04-18T05:32:18.523Z,101490.06
2023-04-18T05:33:20.118Z,101484.06
2023-04-18T05:34:22.704Z,101485.22
2023-04-18T05:35:25.718Z,101486.72
2023-04-18T05:36:28.666Z,101491.41
2023-04-18T05:37:30.431Z,101493.94
2023-04-18T05:38:33.425Z,101497.06
2023-04-18T05:39:35.000Z,101500.31
2023-04-18T05:40:37.584Z,101489.28
2023-04-18T05:41:40.306Z,101495.69
2023-04-18T05:42:41.870Z,101497.22
2023-04-18T05:43:51.044Z,101496.66
2023-04-18T05:44:59.634Z,101500.84
2023-04-18T05:46:05.254Z,101492.09
2023-04-18T05:47:07.990Z,101493.53
2023-04-18T05:48:11.743Z,101499.28
2023-04-18T05:49:14.695Z,101501.41
2023-04-18T05:50:16.300Z,101492.13
2023-04-18T05:51:20.396Z,101498.72
2023-04-18T05:52:22.083Z,101497.16
2023-04-18T05:53:24.753Z,101493.47
2023-04-18T05:54:26.367Z,101503.00
2023-04-18T05:55:29.124Z,101510.94
2023-04-18T05:56:31.771Z,101506.94
2023-04-18T05:57:33.384Z,101507.44
2023-04-18T05:58:35.895Z,101499.75
2023-04-18T05:59:37.497Z,101498.22
2023-04-18T06:00:39.984Z,101502.38
2023-04-18T06:01:41.536Z,101511.59
2023-04-18T06:02:44.260Z,101510.03
2023-04-18T06:03:46.135Z,101511.78
2023-04-18T06:04:49.266Z,101509.44
2023-04-18T06:05:51.914Z,101504.94
2023-04-18T06:06:54.920Z,101504.47
2023-04-18T06:07:57.502Z,101508.84
2023-04-18T06:08:59.208Z,101512.16
2023-04-18T06:10:01.976Z,101505.66
2023-04-18T06:11:06.746Z,101510.00
2023-04-18T06:12:08.296Z,101518.75
2023-04-18T06:13:11.975Z,101513.31
2023-04-18T06:14:13.829Z,101518.66
2023-04-18T06:15:16.398Z,101514.53
2023-04-18T06:16:18.127Z,101515.09
2023-04-18T06:17:21.476Z,101512.38
2023-04-18T06:18:24.392Z,101517.22
2023-04-18T06:19:25.992Z,101516.84
2023-04-18T06:20:28.499Z,101518.31
2023-04-18T06:21:33.160Z,101509.94
2023-04-18T06:22:37.096Z,101519.00
2023-04-18T06:23:38.663Z,101522.09
2023-04-18T06:24:41.288Z,101514.41
2023-04-18T06:25:43.082Z,101516.19
2023-04-18T06:26:45.756Z,101519.94
2023-04-18T06:27:48.284Z,101513.88
2023-04-18T06:28:50.794Z,101521.31
2023-04-18T06:29:52.389Z,101517.44
2023-04-18T06:30:54.890Z,101515.56
2023-04-18T06:31:57.885Z,101511.25
2023-04-18T06:33:00.691Z,101516.06
2023-04-18T06:34:04.362Z,101518.53
2023-04-18T06:35:08.493Z,101517.50
2023-04-18T06:36:11.526Z,101516.09
2023-04-18T06:37:14.055Z,101519.84
2023-04-18T06:38:17.895Z,101517.94
2023-04-18T06:39:20.618Z,101519.00
2023-04-18T06:40:23.362Z,101524.03
2023-04-18T06:41:25.110Z,101518.00
2023-04-18T06:42:27.650Z,101514.88
2023-04-18T06:43:29.203Z,101523.28
2023-04-18T06:44:32.622Z,101523.25
2023-04-18T06:45:35.272Z,101518.59
2023-04-18T06:46:36.957Z,101512.31
2023-04-18T06:47:39.933Z,101520.66
2023-04-18T06:48:42.655Z,101519.22
2023-04-18T06:49:46.130Z,101517.72
2023-04-18T06:50:48.670Z,101525.63
2023-04-18T06:51:51.191Z,101515.59
2023-04-18T06:52:53.981Z,101523.88
2023-04-18T06:54:03.302Z,101515.28
2023-04-18T06:55:07.501Z,101515.06
2023-04-18T06:56:13.698Z,101519.78
2023-04-18T06:57:17.020Z,101521.81
2023-04-18T06:58:19.559Z,101525.34
2023-04-18T06:59:21.844Z,101517.94
2023-04-18T07:00:42.968Z,101529.59
2023-04-18T07:01:44.703Z,101528.06
2023-04-18T07:02:56.528Z,101519.91
2023-04-18T07:03:58.233Z,101527.56
2023-04-18T07:05:01.012Z,101522.81
2023-04-18T07:06:06.375Z,101527.75
2023-04-18T07:07:12.986Z,101530.16
2023-04-18T07:08:14.518Z,101527.38
2023-04-18T07:09:18.307Z,101530.50
2023-04-18T07:10:20.803Z,101532.75
2023-04-18T07:11:23.770Z,101528.06
2023-04-18T07:12:26.624Z,101534.56
2023-04-18T07:13:29.341Z,101530.72
2023-04-18T07:14:33.973Z,101532.78
2023-04-18T07:15:35.846Z,101529.66
2023-04-18T07:16:38.450Z,101535.28
2023-04-18T07:17:40.022Z,101533.97
2023-04-18T07:18:42.751Z,101533.59
2023-04-18T07:19:44.371Z,101534.19
2023-04-18T07:20:46.823Z,101537.69
2023-04-18T07:21:48.402Z,101533.19
2023-04-18T07:22:50.884Z,101528.50
2023-04-18T07:23:52.445Z,101535.78
2023-04-18T07:24:56.239Z,101529.34
2023-04-18T07:25:59.589Z,101529.50
2023-04-18T07:27:09.370Z,101537.25
2023-04-18T07:28:10.887Z,101531.41
2023-04-18T07:29:13.353Z,101525.56
2023-04-18T07:30:16.296Z,101532.28
2023-04-18T07:31:19.460Z,101537.44
2023-04-18T07:32:22.111Z,101540.56
2023-04-18T07:33:24.721Z,101539.19
2023-04-18T07:34:29.915Z,101539.72
2023-04-18T07:35:32.569Z,101535.28
2023-04-18T07:36:35.148Z,101534.31
2023-04-18T07:37:37.746Z,101543.22
2023-04-18T07:38:40.195Z,101536.09
2023-04-18T07:39:42.726Z,101540.41
2023-04-18T07:40:47.125Z,101529.47
2023-04-18T07:41:49.727Z,101538.34
2023-04-18T07:42:52.290Z,101540.72
2023-04-18T07:43:54.821Z,101539.91
2023-04-18T07:44:57.930Z,101540.75
2023-04-18T07:46:00.709Z,101535.41
2023-04-18T07:47:10.860Z,101538.50
2023-04-18T07:48:12.517Z,101536.53
2023-04-18T07:49:15.295Z,101540.19
2023-04-18T07:50:18.025Z,101553.75
2023-04-18T07:51:19.675Z,101546.84
2023-04-18T07:52:22.240Z,101543.50
2023-04-18T07:53:24.783Z,101549.25
2023-04-18T07:54:27.246Z,101549.91
2023-04-18T07:55:28.889Z,101550.66
2023-04-18T07:56:32.757Z,101554.06
2023-04-18T07:57:34.329Z,101553.13
2023-04-18T07:58:36.994Z,101553.19
2023-04-18T07:59:38.797Z,101556.66
2023-04-18T08:00:42.683Z,101555.59
2023-04-18T08:01:44.534Z,101557.06
2023-04-18T08:02:47.493Z,101559.75
2023-04-18T08:03:49.324Z,101553.97
2023-04-18T08:04:52.419Z,101558.78
2023-04-18T08:05:55.481Z,101555.91
2023-04-18T08:06:57.987Z,101549.72
2023-04-18T08:08:00.549Z,101558.41
2023-04-18T08:09:06.012Z,101557.69
2023-04-18T08:10:12.582Z,101567.25
2023-04-18T08:11:14.169Z,101561.38
2023-04-18T08:12:18.372Z,101562.53
2023-04-18T08:13:21.116Z,101559.97
2023-04-18T08:14:23.638Z,101554.53
2023-04-18T08:15:27.230Z,101560.72
2023-04-18T08:16:29.941Z,101563.28
2023-04-18T08:17:33.121Z,101560.22
2023-04-18T08:18:35.798Z,101555.94
2023-04-18T08:19:38.313Z,101561.38
2023-04-18T08:20:41.091Z,101570.00
2023-04-18T08:21:43.624Z,101565.81
2023-04-18T08:23:02.036Z,101568.56
2023-04-18T08:24:10.012Z,101563.34
2023-04-18T08:25:11.862Z,101565.38
2023-04-18T08:26:14.555Z,101571.44
2023-04-18T08:27:17.453Z,101568.16
2023-04-18T08:28:20.159Z,101564.69
2023-04-18T08:29:22.914Z,101562.16
2023-04-18T08:30:25.925Z,101569.22
2023-04-18T08:31:28.811Z,101565.53
2023-04-18T08:32:31.524Z,101572.25
2023-04-18T08:33:34.036Z,101571.41
2023-04-18T08:34:39.543Z,101561.22
2023-04-18T08:35:42.120Z,101567.03
2023-04-18T08:36:46.799Z,101571.63
2023-04-18T08:37:49.404Z,101562.34
2023-04-18T08:38:51.303Z,101568.50
2023-04-18T08:39:53.960Z,101571.94
2023-04-18T08:40:56.602Z,101563.91
2023-04-18T08:41:59.732Z,101575.81
2023-04-18T08:43:12.749Z,101572.06
2023-04-18T08:44:15.891Z,101579.31
2023-04-18T08:45:19.164Z,101578.81
2023-04-18T08:46:25.381Z,101573.50
2023-04-18T08:47:29.136Z,101576.50
2023-04-18T08:48:31.862Z,101571.31
2023-04-18T08:49:34.515Z,101566.81
2023-04-18T08:50:36.252Z,101567.38
2023-04-18T08:51:41.610Z,101562.66
2023-04-18T08:52:48.090Z,101565.97
2023-04-18T08:53:51.346Z,101564.91
2023-04-18T08:54:53.281Z,101565.28
2023-04-18T08:55:56.422Z,101570.44
2023-04-18T08:57:04.907Z,101570.97
2023-04-18T08:58:12.387Z,101561.88
2023-04-18T08:59:18.419Z,101561.59
2023-04-18T09:00:22.541Z,101573.81
2023-04-18T09:01:52.210Z,101565.38
2023-04-18T09:02:56.851Z,101569.59
2023-04-18T09:03:58.805Z,101559.94
2023-04-18T09:05:01.909Z,101572.41
2023-04-18T09:06:08.463Z,101565.47
2023-04-18T09:07:17.388Z,101570.06
2023-04-18T09:08:23.996Z,101562.38
2023-04-18T09:09:27.593Z,101553.03
2023-04-18T09:10:32.608Z,101572.06
2023-04-18T09:11:34.497Z,101573.97
2023-04-18T09:12:50.162Z,101568.41
2023-04-18T09:13:55.926Z,101564.22
2023-04-18T09:15:11.208Z,101567.63
2023-04-18T09:16:13.497Z,101558.53
2023-04-18T09:17:21.883Z,101556.22
2023-04-18T09:18:24.272Z,101566.91
2023-04-18T09:19:27.004Z,101567.03
2023-04-18T09:20:34.714Z,101561.25
2023-04-18T09:21:39.614Z,101560.41
2023-04-18T09:22:50.529Z,101550.66
2023-04-18T09:24:17.548Z,101561.44
2023-04-18T09:25:27.462Z,101567.50
2023-04-18T09:26:33.807Z,101559.75
2023-04-18T09:27:36.556Z,101563.06
2023-04-18T09:28:38.389Z,101558.72
2023-04-18T09:29:47.446Z,101565.66
2023-04-18T09:30:52.389Z,101560.91
2023-04-18T09:32:01.060Z,101567.19
2023-04-18T09:33:07.427Z,101564.63
2023-04-18T09:34:25.041Z,101566.16
2023-04-18T09:35:30.549Z,101562.81
2023-04-18T09:36:32.325Z,101565.47
2023-04-18T09:37:36.178Z,101563.56
2023-04-18T09:38:42.147Z,101564.94
2023-04-18T09:39:44.937Z,101564.13
2023-04-18T09:40:47.562Z,101565.78
2023-04-18T09:41:58.547Z,101559.94
2023-04-18T09:43:01.563Z,101564.44
2023-04-18T09:44:14.289Z,101564.19
2023-04-18T09:45:18.859Z,101560.81
2023-04-18T09:46:22.638Z,101554.78
2023-04-18T09:47:25.466Z,101559.81
2023-04-18T09:48:27.994Z,101558.06
2023-04-18T09:49:29.631Z,101565.34
2023-04-18T09:50:33.575Z,101560.31
2023-04-18T09:51:35.537Z,101556.72
2023-04-18T09:52:39.745Z,101560.09
2023-04-18T09:53:44.682Z,101555.41
2023-04-18T09:54:48.327Z,101549.31
2023-04-18T09:55:52.216Z,101548.28
2023-04-18T09:56:56.381Z,101552.94
2023-04-18T09:58:01.805Z,101557.75
2023-04-18T09:59:08.668Z,101560.63
2023-04-18T10:00:17.259Z,101552.22
2023-04-18T10:01:21.241Z,101552.00
2023-04-18T10:02:25.101Z,101561.47
2023-04-18T10:03:35.281Z,101553.38
2023-04-18T10:04:37.269Z,101558.03
2023-04-18T10:05:41.629Z,101549.31
2023-04-18T10:06:46.760Z,101549.69
2023-04-18T10:07:50.901Z,101556.25
2023-04-18T10:08:53.633Z,101550.19
2023-04-18T10:09:56.230Z,101561.34
2023-04-18T10:10:58.890Z,101549.53
2023-04-18T10:12:02.662Z,101554.38
2023-04-18T10:13:14.862Z,101555.31
2023-04-18T10:14:17.769Z,101561.34
2023-04-18T10:15:23.384Z,101550.56
2023-04-18T10:16:26.990Z,101549.38
2023-04-18T10:17:29.891Z,101557.84
2023-04-18T10:18:32.633Z,101559.91
2023-04-18T10:19:36.004Z,101557.97
2023-04-18T10:20:41.397Z,101553.50
2023-04-18T10:21:51.411Z,101550.78
2023-04-18T10:22:55.720Z,101552.13
2023-04-18T10:23:57.249Z,101550.25
2023-04-18T10:24:59.826Z,101553.38
2023-04-18T10:26:11.193Z,101550.34
2023-04-18T10:27:12.809Z,101557.81
2023-04-18T10:28:15.764Z,101557.59
2023-04-18T10:29:18.322Z,101556.91
2023-04-18T10:30:20.917Z,101555.00
2023-04-18T10:31:23.881Z,101551.28
2023-04-18T10:32:28.684Z,101556.47
2023-04-18T10:33:42.374Z,101549.84
2023-04-18T10:34:46.519Z,101551.09
2023-04-18T10:35:57.745Z,101548.03
2023-04-18T10:37:06.963Z,101547.13
2023-04-18T10:38:16.672Z,101553.03
2023-04-18T10:39:25.564Z,101552.38
2023-04-18T10:40:33.961Z,101557.47
2023-04-18T10:41:50.993Z,101561.25
2023-04-18T10:43:00.604Z,101546.00
2023-04-18T10:44:20.580Z,101547.25
2023-04-18T10:45:23.437Z,101552.75
2023-04-18T10:46:32.564Z,101546.56
2023-04-18T10:47:37.223Z,101552.69
2023-04-18T10:48:39.363Z,101535.63
2023-04-18T10:49:54.646Z,101535.75
2023-04-18T10:51:14.119Z,101542.47
2023-04-18T10:52:15.966Z,101540.41
2023-04-18T10:53:18.495Z,101532.78
2023-04-18T10:54:22.327Z,101534.50
2023-04-18T10:55:27.995Z,101535.69
2023-04-18T10:56:29.901Z,101534.56
2023-04-18T10:57:41.592Z,101539.88
2023-04-18T10:58:50.153Z,101540.44
2023-04-18T10:59:52.528Z,101539.38
2023-04-18T11:00:55.814Z,101542.88
2023-04-18T11:02:03.350Z,101534.66
2023-04-18T11:03:08.446Z,101531.47
2023-04-18T11:04:14.356Z,101530.09
2023-04-18T11:05:21.312Z,101538.69
2023-04-18T11:06:25.751Z,101533.13
2023-04-18T11:07:34.923Z,101528.19
2023-04-18T11:08:37.449Z,101539.28
2023-04-18T11:09:39.068Z,101531.63
2023-04-18T11:10:41.575Z,101533.22
2023-04-18T11:11:44.090Z,101525.38
2023-04-18T11:12:47.045Z,101530.28
2023-04-18T11:13:57.475Z,101522.44
2023-04-18T11:15:01.540Z,101527.81
2023-04-18T11:16:08.273Z,101520.88
2023-04-18T11:17:21.177Z,101526.53
2023-04-18T11:18:25.849Z,101527.31
2023-04-18T11:19:28.006Z,101526.66
2023-04-18T11:20:38.774Z,101518.09
2023-04-18T11:21:43.379Z,101521.84
2023-04-18T11:22:51.364Z,101523.53
2023-04-18T11:23:56.102Z,101521.88
2023-04-18T11:24:59.301Z,101517.16
2023-04-18T11:26:07.754Z,101515.53
2023-04-18T11:27:15.681Z,101513.75
2023-04-18T11:28:21.312Z,101519.22
2023-04-18T11:29:23.184Z,101518.84
2023-04-18T11:30:26.073Z,101519.91
2023-04-18T11:31:27.740Z,101521.97
2023-04-18T11:32:30.557Z,101516.13
2023-04-18T11:33:34.473Z,101523.91
2023-04-18T11:34:36.572Z,101522.94
2023-04-18T11:35:39.833Z,101519.63
2023-04-18T11:36:41.532Z,101516.47
2023-04-18T11:37:46.680Z,101519.06
2023-04-18T11:38:48.402Z,101518.97
2023-04-18T11:39:53.265Z,101521.00
2023-04-18T11:40:54.930Z,101511.97
2023-04-18T11:41:58.199Z,101512.88
2023-04-18T11:43:01.947Z,101514.81
2023-04-18T11:44:07.719Z,101509.53
2023-04-18T11:45:11.658Z,101515.06
2023-04-18T11:46:14.935Z,101517.44
2023-04-18T11:47:23.997Z,101510.44
2023-04-18T11:48:36.956Z,101516.06
2023-04-18T11:49:39.856Z,101517.09
2023-04-18T11:50:42.371Z,101509.13
2023-04-18T11:51:46.305Z,101515.25
2023-04-18T11:52:51.992Z,101511.94
2023-04-18T11:53:53.599Z,101516.47
2023-04-18T11:54:56.758Z,101512.44
2023-04-18T11:56:01.010Z,101519.38
2023-04-18T11:57:24.482Z,101512.75
2023-04-18T11:58:32.333Z,101515.28
2023-04-18T11:59:34.110Z,101521.38
2023-04-18T12:00:38.550Z,101512.38
2023-04-18T12:01:41.717Z,101514.03
2023-04-18T12:02:47.359Z,101512.94
2023-04-18T12:04:05.513Z,101513.91
2023-04-18T12:05:15.055Z,101515.16
2023-04-18T12:06:17.921Z,101511.59
2023-04-18T12:07:33.940Z,101517.97
2023-04-18T12:08:36.755Z,101515.44